sensor_id;sensor_type;location;lat;lon;timestamp;temperature;humidity
12632;DHT22;6381;45.748;12.106;2023-06-10T00:00:55;20.40;99.90
12632;DHT22;6381;45.748;12.106;2023-06-10T00:03:25;20.50;99.90
12632;DHT22;6381;45.748;12.106;2023-06-10T00:05:54;20.60;99.90
12632;DHT22;6381;45.748;12.106;2023-06-10T00:08:24;20.50;99.90
12632;DHT22;6381;45.748;12.106;2023-06-10T00:10:54;20.60;99.90
12632;DHT22;6381;45.748;12.106;2023-06-10T00:13:23;20.40;99.90
12632;DHT22;6381;45.748;12.106;2023-06-10T00:15:55;20.40;99.90
12632;DHT22;6381;45.748;12.106;2023-06-10T00:18:25;20.20;99.90
12632;DHT22;6381;45.748;12.106;2023-06-10T00:20:55;20.30;99.90
12632;DHT22;6381;45.748;12.106;2023-06-10T00:23:25;20.40;99.90
12632;DHT22;6381;45.748;12.106;2023-06-10T00:25:58;20.30;99.90
12632;DHT22;6381;45.748;12.106;2023-06-10T00:28:27;20.40;99.90
12632;DHT22;6381;45.748;12.106;2023-06-10T00:30:59;20.60;99.90
12632;DHT22;6381;45.748;12.106;2023-06-10T00:33:29;20.70;99.90
12632;DHT22;6381;45.748;12.106;2023-06-10T00:35:59;20.60;99.90
12632;DHT22;6381;45.748;12.106;2023-06-10T00:38:28;20.60;99.90
12632;DHT22;6381;45.748;12.106;2023-06-10T00:40:58;20.50;99.90
12632;DHT22;6381;45.748;12.106;2023-06-10T00:43:27;20.40;99.90
12632;DHT22;6381;45.748;12.106;2023-06-10T00:45:59;20.30;99.90
12632;DHT22;6381;45.748;12.106;2023-06-10T00:48:30;20.40;99.90
12632;DHT22;6381;45.748;12.106;2023-06-10T00:51:00;20.40;99.90
12632;DHT22;6381;45.748;12.106;2023-06-10T00:53:30;20.10;99.90
12632;DHT22;6381;45.748;12.106;2023-06-10T00:56:00;20.10;99.90
12632;DHT22;6381;45.748;12.106;2023-06-10T00:58:30;20.20;99.90
12632;DHT22;6381;45.748;12.106;2023-06-10T01:01:01;20.20;99.90
12632;DHT22;6381;45.748;12.106;2023-06-10T01:03:32;20.20;99.90
12632;DHT22;6381;45.748;12.106;2023-06-10T01:06:09;20.00;99.90
12632;DHT22;6381;45.748;12.106;2023-06-10T01:08:50;20.00;99.90
12632;DHT22;6381;45.748;12.106;2023-06-10T01:11:28;20.10;99.90
12632;DHT22;6381;45.748;12.106;2023-06-10T01:13:58;20.00;99.90
12632;DHT22;6381;45.748;12.106;2023-06-10T01:16:30;19.70;99.90
12632;DHT22;6381;45.748;12.106;2023-06-10T01:19:01;19.50;99.90
12632;DHT22;6381;45.748;12.106;2023-06-10T01:21:32;19.60;99.90
12632;DHT22;6381;45.748;12.106;2023-06-10T01:24:02;19.40;99.90
12632;DHT22;6381;45.748;12.106;2023-06-10T01:26:36;19.50;99.90
12632;DHT22;6381;45.748;12.106;2023-06-10T01:29:09;19.50;99.90
12632;DHT22;6381;45.748;12.106;2023-06-10T01:31:46;19.50;99.90
12632;DHT22;6381;45.748;12.106;2023-06-10T01:34:21;19.50;99.90
12632;DHT22;6381;45.748;12.106;2023-06-10T01:36:56;19.70;99.90
12632;DHT22;6381;45.748;12.106;2023-06-10T01:39:27;19.90;99.90
12632;DHT22;6381;45.748;12.106;2023-06-10T01:41:58;19.70;99.90
12632;DHT22;6381;45.748;12.106;2023-06-10T01:44:30;19.80;99.90
12632;DHT22;6381;45.748;12.106;2023-06-10T01:47:00;19.50;99.90
12632;DHT22;6381;45.748;12.106;2023-06-10T01:49:30;19.40;99.90
12632;DHT22;6381;45.748;12.106;2023-06-10T01:52:02;19.70;99.90
12632;DHT22;6381;45.748;12.106;2023-06-10T01:54:33;19.50;99.90
12632;DHT22;6381;45.748;12.106;2023-06-10T01:57:03;19.60;99.90
12632;DHT22;6381;45.748;12.106;2023-06-10T01:59:34;19.40;99.90
12632;DHT22;6381;45.748;12.106;2023-06-10T02:02:06;19.30;99.90
12632;DHT22;6381;45.748;12.106;2023-06-10T02:04:35;19.10;99.90
12632;DHT22;6381;45.748;12.106;2023-06-10T02:07:07;19.00;99.90
12632;DHT22;6381;45.748;12.106;2023-06-10T02:09:37;19.20;99.90
12632;DHT22;6381;45.748;12.106;2023-06-10T02:12:07;19.40;99.90
12632;DHT22;6381;45.748;12.106;2023-06-10T02:14:38;19.30;99.90
12632;DHT22;6381;45.748;12.106;2023-06-10T02:17:08;19.20;99.90
12632;DHT22;6381;45.748;12.106;2023-06-10T02:19:42;19.20;99.90
12632;DHT22;6381;45.748;12.106;2023-06-10T02:22:14;19.30;99.90
12632;DHT22;6381;45.748;12.106;2023-06-10T02:24:46;19.40;99.90
12632;DHT22;6381;45.748;12.106;2023-06-10T02:27:16;19.40;99.90
12632;DHT22;6381;45.748;12.106;2023-06-10T02:29:46;19.30;99.90
12632;DHT22;6381;45.748;12.106;2023-06-10T02:32:16;19.20;99.90
12632;DHT22;6381;45.748;12.106;2023-06-10T02:34:46;19.30;99.90
12632;DHT22;6381;45.748;12.106;2023-06-10T02:37:20;19.10;99.90
12632;DHT22;6381;45.748;12.106;2023-06-10T02:39:51;19.10;99.90
12632;DHT22;6381;45.748;12.106;2023-06-10T02:42:21;19.00;99.90
12632;DHT22;6381;45.748;12.106;2023-06-10T02:44:52;19.00;99.90
12632;DHT22;6381;45.748;12.106;2023-06-10T02:47:32;19.10;99.90
12632;DHT22;6381;45.748;12.106;2023-06-10T02:50:03;19.00;99.90
12632;DHT22;6381;45.748;12.106;2023-06-10T02:52:41;18.90;99.90
12632;DHT22;6381;45.748;12.106;2023-06-10T02:55:11;19.00;99.90
12632;DHT22;6381;45.748;12.106;2023-06-10T02:57:47;19.20;99.90
12632;DHT22;6381;45.748;12.106;2023-06-10T03:00:19;19.00;99.90
12632;DHT22;6381;45.748;12.106;2023-06-10T03:02:55;18.90;99.90
12632;DHT22;6381;45.748;12.106;2023-06-10T03:05:33;18.90;99.90
12632;DHT22;6381;45.748;12.106;2023-06-10T03:08:07;18.90;99.90
12632;DHT22;6381;45.748;12.106;2023-06-10T03:10:42;18.80;99.90
12632;DHT22;6381;45.748;12.106;2023-06-10T03:13:16;18.80;99.90
12632;DHT22;6381;45.748;12.106;2023-06-10T03:15:46;19.00;99.90
12632;DHT22;6381;45.748;12.106;2023-06-10T03:18:18;18.90;99.90
12632;DHT22;6381;45.748;12.106;2023-06-10T03:20:49;19.10;99.90
12632;DHT22;6381;45.748;12.106;2023-06-10T03:23:27;19.20;99.90
12632;DHT22;6381;45.748;12.106;2023-06-10T03:25:58;19.20;99.90
12632;DHT22;6381;45.748;12.106;2023-06-10T03:28:32;19.10;99.90
12632;DHT22;6381;45.748;12.106;2023-06-10T03:31:03;19.30;99.90
12632;DHT22;6381;45.748;12.106;2023-06-10T03:33:34;19.40;99.90
12632;DHT22;6381;45.748;12.106;2023-06-10T03:36:06;19.40;99.90
12632;DHT22;6381;45.748;12.106;2023-06-10T03:38:38;19.50;99.90
12632;DHT22;6381;45.748;12.106;2023-06-10T03:41:08;19.40;99.90
12632;DHT22;6381;45.748;12.106;2023-06-10T03:43:41;19.50;99.90
12632;DHT22;6381;45.748;12.106;2023-06-10T03:46:14;19.20;99.90
12632;DHT22;6381;45.748;12.106;2023-06-10T03:48:46;19.30;99.90
12632;DHT22;6381;45.748;12.106;2023-06-10T03:51:16;19.50;99.90
12632;DHT22;6381;45.748;12.106;2023-06-10T03:53:48;19.50;99.90
12632;DHT22;6381;45.748;12.106;2023-06-10T03:56:18;19.60;99.90
12632;DHT22;6381;45.748;12.106;2023-06-10T03:58:49;19.50;99.90
12632;DHT22;6381;45.748;12.106;2023-06-10T04:01:19;19.50;99.90
12632;DHT22;6381;45.748;12.106;2023-06-10T04:03:49;19.30;99.90
12632;DHT22;6381;45.748;12.106;2023-06-10T04:06:22;19.20;99.90
12632;DHT22;6381;45.748;12.106;2023-06-10T04:08:55;18.90;99.90
12632;DHT22;6381;45.748;12.106;2023-06-10T04:11:27;19.10;99.90
12632;DHT22;6381;45.748;12.106;2023-06-10T04:13:58;19.20;99.90
12632;DHT22;6381;45.748;12.106;2023-06-10T04:16:28;19.40;99.90
12632;DHT22;6381;45.748;12.106;2023-06-10T04:18:59;19.30;99.90
12632;DHT22;6381;45.748;12.106;2023-06-10T04:21:29;19.20;99.90
12632;DHT22;6381;45.748;12.106;2023-06-10T04:24:00;19.00;99.90
12632;DHT22;6381;45.748;12.106;2023-06-10T04:26:32;18.90;99.90
12632;DHT22;6381;45.748;12.106;2023-06-10T04:29:02;19.10;99.90
12632;DHT22;6381;45.748;12.106;2023-06-10T04:31:32;19.10;99.90
12632;DHT22;6381;45.748;12.106;2023-06-10T04:34:02;19.30;99.90
12632;DHT22;6381;45.748;12.106;2023-06-10T04:36:32;19.60;99.90
12632;DHT22;6381;45.748;12.106;2023-06-10T04:39:03;19.40;99.90
12632;DHT22;6381;45.748;12.106;2023-06-10T04:41:35;19.60;99.90
12632;DHT22;6381;45.748;12.106;2023-06-10T04:44:05;19.60;99.90
12632;DHT22;6381;45.748;12.106;2023-06-10T04:46:35;19.60;99.90
12632;DHT22;6381;45.748;12.106;2023-06-10T04:49:05;19.60;99.90
12632;DHT22;6381;45.748;12.106;2023-06-10T04:51:35;19.70;99.90
12632;DHT22;6381;45.748;12.106;2023-06-10T04:54:07;20.00;99.90
12632;DHT22;6381;45.748;12.106;2023-06-10T04:56:37;20.10;99.90
12632;DHT22;6381;45.748;12.106;2023-06-10T04:59:07;20.00;99.90
12632;DHT22;6381;45.748;12.106;2023-06-10T05:01:37;20.20;99.90
12632;DHT22;6381;45.748;12.106;2023-06-10T05:04:07;20.20;99.90
12632;DHT22;6381;45.748;12.106;2023-06-10T05:06:37;20.20;99.90
12632;DHT22;6381;45.748;12.106;2023-06-10T05:09:09;20.30;99.90
12632;DHT22;6381;45.748;12.106;2023-06-10T05:11:38;20.30;99.90
12632;DHT22;6381;45.748;12.106;2023-06-10T05:14:09;20.40;99.90
12632;DHT22;6381;45.748;12.106;2023-06-10T05:16:39;20.30;99.90
12632;DHT22;6381;45.748;12.106;2023-06-10T05:19:09;20.10;99.90
12632;DHT22;6381;45.748;12.106;2023-06-10T05:21:39;20.30;99.90
12632;DHT22;6381;45.748;12.106;2023-06-10T05:24:10;20.20;99.90
12632;DHT22;6381;45.748;12.106;2023-06-10T05:26:40;20.30;99.90
12632;DHT22;6381;45.748;12.106;2023-06-10T05:29:10;20.40;99.90
12632;DHT22;6381;45.748;12.106;2023-06-10T05:31:40;20.50;99.90
12632;DHT22;6381;45.748;12.106;2023-06-10T05:34:10;20.50;99.90
12632;DHT22;6381;45.748;12.106;2023-06-10T05:36:41;20.50;99.90
12632;DHT22;6381;45.748;12.106;2023-06-10T05:39:12;20.60;99.90
12632;DHT22;6381;45.748;12.106;2023-06-10T05:41:42;20.50;99.90
12632;DHT22;6381;45.748;12.106;2023-06-10T05:44:12;20.70;99.90
12632;DHT22;6381;45.748;12.106;2023-06-10T05:46:41;20.60;99.90
12632;DHT22;6381;45.748;12.106;2023-06-10T05:49:11;20.80;99.90
12632;DHT22;6381;45.748;12.106;2023-06-10T05:51:41;20.70;99.90
12632;DHT22;6381;45.748;12.106;2023-06-10T05:54:12;20.90;99.90
12632;DHT22;6381;45.748;12.106;2023-06-10T05:56:42;21.10;99.90
12632;DHT22;6381;45.748;12.106;2023-06-10T05:59:12;21.00;99.90
12632;DHT22;6381;45.748;12.106;2023-06-10T06:01:41;21.20;99.90
12632;DHT22;6381;45.748;12.106;2023-06-10T06:04:11;21.50;99.90
12632;DHT22;6381;45.748;12.106;2023-06-10T06:06:41;21.60;99.90
12632;DHT22;6381;45.748;12.106;2023-06-10T06:09:14;21.70;99.90
12632;DHT22;6381;45.748;12.106;2023-06-10T06:11:44;21.30;99.90
12632;DHT22;6381;45.748;12.106;2023-06-10T06:14:14;21.30;99.90
12632;DHT22;6381;45.748;12.106;2023-06-10T06:16:45;21.30;99.90
12632;DHT22;6381;45.748;12.106;2023-06-10T06:19:14;21.50;99.90
12632;DHT22;6381;45.748;12.106;2023-06-10T06:21:47;21.50;99.90
12632;DHT22;6381;45.748;12.106;2023-06-10T06:24:18;21.50;99.90
12632;DHT22;6381;45.748;12.106;2023-06-10T06:26:48;21.70;99.90
12632;DHT22;6381;45.748;12.106;2023-06-10T06:29:18;21.60;99.90
12632;DHT22;6381;45.748;12.106;2023-06-10T06:31:48;21.40;99.90
12632;DHT22;6381;45.748;12.106;2023-06-10T06:34:19;21.50;99.90
12632;DHT22;6381;45.748;12.106;2023-06-10T06:36:49;21.50;99.90
12632;DHT22;6381;45.748;12.106;2023-06-10T06:39:21;21.70;99.90
12632;DHT22;6381;45.748;12.106;2023-06-10T06:41:53;21.80;99.90
12632;DHT22;6381;45.748;12.106;2023-06-10T06:44:40;21.90;99.90
12632;DHT22;6381;45.748;12.106;2023-06-10T06:47:10;22.00;99.90
12632;DHT22;6381;45.748;12.106;2023-06-10T06:49:41;22.00;99.90
12632;DHT22;6381;45.748;12.106;2023-06-10T06:52:11;21.90;99.90
12632;DHT22;6381;45.748;12.106;2023-06-10T06:54:43;22.00;99.90
12632;DHT22;6381;45.748;12.106;2023-06-10T06:57:14;22.00;99.90
12632;DHT22;6381;45.748;12.106;2023-06-10T06:59:44;22.00;99.90
12632;DHT22;6381;45.748;12.106;2023-06-10T07:02:14;22.00;99.90
12632;DHT22;6381;45.748;12.106;2023-06-10T07:04:44;22.20;99.90
12632;DHT22;6381;45.748;12.106;2023-06-10T07:07:17;22.20;99.90
12632;DHT22;6381;45.748;12.106;2023-06-10T07:09:48;22.20;99.90
12632;DHT22;6381;45.748;12.106;2023-06-10T07:12:18;22.20;99.90
12632;DHT22;6381;45.748;12.106;2023-06-10T07:14:51;22.30;99.90
12632;DHT22;6381;45.748;12.106;2023-06-10T07:17:22;22.20;99.90
12632;DHT22;6381;45.748;12.106;2023-06-10T07:19:52;22.20;99.90
12632;DHT22;6381;45.748;12.106;2023-06-10T07:22:25;22.10;99.90
12632;DHT22;6381;45.748;12.106;2023-06-10T07:24:58;22.10;99.90
12632;DHT22;6381;45.748;12.106;2023-06-10T07:27:29;22.50;99.90
12632;DHT22;6381;45.748;12.106;2023-06-10T07:30:00;22.60;99.90
12632;DHT22;6381;45.748;12.106;2023-06-10T07:32:36;22.60;99.90
12632;DHT22;6381;45.748;12.106;2023-06-10T07:35:14;22.30;99.90
12632;DHT22;6381;45.748;12.106;2023-06-10T07:37:45;22.00;99.90
12632;DHT22;6381;45.748;12.106;2023-06-10T07:40:20;22.30;99.90
12632;DHT22;6381;45.748;12.106;2023-06-10T07:42:50;22.60;99.90
12632;DHT22;6381;45.748;12.106;2023-06-10T07:45:22;22.60;99.90
12632;DHT22;6381;45.748;12.106;2023-06-10T07:47:54;22.70;99.90
12632;DHT22;6381;45.748;12.106;2023-06-10T07:50:25;22.80;99.90
12632;DHT22;6381;45.748;12.106;2023-06-10T07:52:59;23.10;99.90
12632;DHT22;6381;45.748;12.106;2023-06-10T07:55:31;23.20;99.90
12632;DHT22;6381;45.748;12.106;2023-06-10T07:58:03;23.30;99.90
12632;DHT22;6381;45.748;12.106;2023-06-10T08:00:47;23.50;99.90
12632;DHT22;6381;45.748;12.106;2023-06-10T08:03:27;23.60;99.90
12632;DHT22;6381;45.748;12.106;2023-06-10T08:06:18;23.70;99.90
12632;DHT22;6381;45.748;12.106;2023-06-10T08:18:35;22.80;99.90
12632;DHT22;6381;45.748;12.106;2023-06-10T08:21:04;24.00;99.90
12632;DHT22;6381;45.748;12.106;2023-06-10T08:23:33;23.90;99.90
12632;DHT22;6381;45.748;12.106;2023-06-10T08:26:02;24.20;99.90
12632;DHT22;6381;45.748;12.106;2023-06-10T08:28:31;24.10;99.90
12632;DHT22;6381;45.748;12.106;2023-06-10T08:31:00;24.20;99.90
12632;DHT22;6381;45.748;12.106;2023-06-10T08:33:28;24.20;99.90
12632;DHT22;6381;45.748;12.106;2023-06-10T08:35:59;24.20;99.90
12632;DHT22;6381;45.748;12.106;2023-06-10T08:38:28;24.10;99.90
12632;DHT22;6381;45.748;12.106;2023-06-10T08:40:59;24.00;99.90
12632;DHT22;6381;45.748;12.106;2023-06-10T08:43:33;24.00;99.90
12632;DHT22;6381;45.748;12.106;2023-06-10T08:46:03;24.10;99.90
12632;DHT22;6381;45.748;12.106;2023-06-10T08:48:35;24.20;99.90
12632;DHT22;6381;45.748;12.106;2023-06-10T08:51:10;24.30;99.90
12632;DHT22;6381;45.748;12.106;2023-06-10T08:53:50;24.40;99.90
12632;DHT22;6381;45.748;12.106;2023-06-10T08:56:20;24.30;99.90
12632;DHT22;6381;45.748;12.106;2023-06-10T08:58:50;24.70;99.90
12632;DHT22;6381;45.748;12.106;2023-06-10T09:01:20;24.80;99.90
12632;DHT22;6381;45.748;12.106;2023-06-10T09:03:49;24.90;99.90
12632;DHT22;6381;45.748;12.106;2023-06-10T09:06:20;24.90;99.30
12632;DHT22;6381;45.748;12.106;2023-06-10T09:08:49;24.60;98.80
12632;DHT22;6381;45.748;12.106;2023-06-10T09:11:18;25.10;99.90
12632;DHT22;6381;45.748;12.106;2023-06-10T09:13:47;25.20;98.40
12632;DHT22;6381;45.748;12.106;2023-06-10T09:16:16;25.40;98.80
12632;DHT22;6381;45.748;12.106;2023-06-10T09:18:48;25.50;98.30
12632;DHT22;6381;45.748;12.106;2023-06-10T09:21:24;25.70;99.30
12632;DHT22;6381;45.748;12.106;2023-06-10T09:23:53;25.70;98.90
12632;DHT22;6381;45.748;12.106;2023-06-10T09:26:28;25.80;98.20
12632;DHT22;6381;45.748;12.106;2023-06-10T09:29:03;25.60;96.10
12632;DHT22;6381;45.748;12.106;2023-06-10T09:31:35;26.10;97.20
12632;DHT22;6381;45.748;12.106;2023-06-10T09:34:10;26.10;94.90
12632;DHT22;6381;45.748;12.106;2023-06-10T09:36:41;26.10;93.70
12632;DHT22;6381;45.748;12.106;2023-06-10T09:39:15;25.80;94.00
12632;DHT22;6381;45.748;12.106;2023-06-10T09:41:45;25.70;94.80
12632;DHT22;6381;45.748;12.106;2023-06-10T09:44:16;25.60;93.30
12632;DHT22;6381;45.748;12.106;2023-06-10T09:46:46;25.60;93.20
12632;DHT22;6381;45.748;12.106;2023-06-10T09:49:16;25.10;92.80
12632;DHT22;6381;45.748;12.106;2023-06-10T09:51:51;25.20;92.70
12632;DHT22;6381;45.748;12.106;2023-06-10T09:54:21;25.50;92.40
12632;DHT22;6381;45.748;12.106;2023-06-10T09:56:51;25.40;92.50
12632;DHT22;6381;45.748;12.106;2023-06-10T09:59:28;25.70;93.30
12632;DHT22;6381;45.748;12.106;2023-06-10T10:01:59;25.90;91.90
12632;DHT22;6381;45.748;12.106;2023-06-10T10:04:28;25.50;90.20
12632;DHT22;6381;45.748;12.106;2023-06-10T10:06:59;26.20;93.90
12632;DHT22;6381;45.748;12.106;2023-06-10T10:09:28;26.40;92.90
12632;DHT22;6381;45.748;12.106;2023-06-10T10:11:57;26.70;91.50
12632;DHT22;6381;45.748;12.106;2023-06-10T10:14:30;26.90;91.90
12632;DHT22;6381;45.748;12.106;2023-06-10T10:17:00;27.10;89.80
12632;DHT22;6381;45.748;12.106;2023-06-10T10:19:32;26.60;87.70
12632;DHT22;6381;45.748;12.106;2023-06-10T10:22:07;27.10;85.50
12632;DHT22;6381;45.748;12.106;2023-06-10T10:24:48;26.90;86.50
12632;DHT22;6381;45.748;12.106;2023-06-10T10:27:20;26.40;86.60
12632;DHT22;6381;45.748;12.106;2023-06-10T10:29:52;26.80;87.40
12632;DHT22;6381;45.748;12.106;2023-06-10T10:32:26;26.40;84.00
12632;DHT22;6381;45.748;12.106;2023-06-10T10:35:00;26.30;90.20
12632;DHT22;6381;45.748;12.106;2023-06-10T10:37:35;26.60;90.10
12632;DHT22;6381;45.748;12.106;2023-06-10T10:40:05;26.50;86.10
12632;DHT22;6381;45.748;12.106;2023-06-10T10:42:35;26.10;86.60
12632;DHT22;6381;45.748;12.106;2023-06-10T10:45:06;25.90;88.90
12632;DHT22;6381;45.748;12.106;2023-06-10T10:47:36;26.20;87.20
12632;DHT22;6381;45.748;12.106;2023-06-10T10:50:14;26.50;87.80
12632;DHT22;6381;45.748;12.106;2023-06-10T10:52:52;26.40;86.20
12632;DHT22;6381;45.748;12.106;2023-06-10T10:55:22;26.50;88.50
12632;DHT22;6381;45.748;12.106;2023-06-10T10:57:55;26.70;86.80
12632;DHT22;6381;45.748;12.106;2023-06-10T11:00:28;26.30;88.00
12632;DHT22;6381;45.748;12.106;2023-06-10T11:02:59;26.20;89.50
12632;DHT22;6381;45.748;12.106;2023-06-10T11:05:38;26.40;90.10
12632;DHT22;6381;45.748;12.106;2023-06-10T11:08:08;26.60;91.60
12632;DHT22;6381;45.748;12.106;2023-06-10T11:10:38;26.40;90.90
12632;DHT22;6381;45.748;12.106;2023-06-10T11:13:10;26.00;92.10
12632;DHT22;6381;45.748;12.106;2023-06-10T11:15:44;25.50;93.30
12632;DHT22;6381;45.748;12.106;2023-06-10T11:18:24;25.50;94.00
12632;DHT22;6381;45.748;12.106;2023-06-10T11:20:55;25.90;92.80
12632;DHT22;6381;45.748;12.106;2023-06-10T11:23:34;26.50;93.20
12632;DHT22;6381;45.748;12.106;2023-06-10T11:26:13;26.50;90.90
12632;DHT22;6381;45.748;12.106;2023-06-10T11:29:01;26.80;91.10
12632;DHT22;6381;45.748;12.106;2023-06-10T11:31:31;27.20;90.50
12632;DHT22;6381;45.748;12.106;2023-06-10T11:34:02;27.80;88.70
12632;DHT22;6381;45.748;12.106;2023-06-10T11:36:33;27.30;85.40
12632;DHT22;6381;45.748;12.106;2023-06-10T11:39:06;27.40;82.40
12632;DHT22;6381;45.748;12.106;2023-06-10T11:41:35;26.90;85.80
12632;DHT22;6381;45.748;12.106;2023-06-10T11:44:09;26.90;88.40
12632;DHT22;6381;45.748;12.106;2023-06-10T11:46:38;26.20;87.40
12632;DHT22;6381;45.748;12.106;2023-06-10T11:49:11;25.90;89.80
12632;DHT22;6381;45.748;12.106;2023-06-10T11:51:41;26.10;90.50
12632;DHT22;6381;45.748;12.106;2023-06-10T11:54:18;26.60;86.60
12632;DHT22;6381;45.748;12.106;2023-06-10T11:56:47;27.00;86.80
12632;DHT22;6381;45.748;12.106;2023-06-10T11:59:17;26.40;89.20
12632;DHT22;6381;45.748;12.106;2023-06-10T12:01:47;26.40;90.00
12632;DHT22;6381;45.748;12.106;2023-06-10T12:04:16;27.00;90.30
12632;DHT22;6381;45.748;12.106;2023-06-10T12:06:47;26.60;89.10
12632;DHT22;6381;45.748;12.106;2023-06-10T12:09:22;26.90;92.10
12632;DHT22;6381;45.748;12.106;2023-06-10T12:11:57;27.50;91.40
12632;DHT22;6381;45.748;12.106;2023-06-10T12:14:55;27.50;88.80
12632;DHT22;6381;45.748;12.106;2023-06-10T12:17:36;26.70;89.10
12632;DHT22;6381;45.748;12.106;2023-06-10T12:20:07;26.90;90.70
12632;DHT22;6381;45.748;12.106;2023-06-10T12:22:37;27.20;91.60
12632;DHT22;6381;45.748;12.106;2023-06-10T12:25:09;27.20;91.70
12632;DHT22;6381;45.748;12.106;2023-06-10T12:27:49;27.10;91.20
12632;DHT22;6381;45.748;12.106;2023-06-10T12:30:19;27.10;91.20
12632;DHT22;6381;45.748;12.106;2023-06-10T12:32:49;27.60;91.30
12632;DHT22;6381;45.748;12.106;2023-06-10T12:35:21;27.40;91.00
12632;DHT22;6381;45.748;12.106;2023-06-10T12:37:55;27.50;90.40
12632;DHT22;6381;45.748;12.106;2023-06-10T12:40:30;27.90;90.70
12632;DHT22;6381;45.748;12.106;2023-06-10T12:43:00;27.50;88.80
12632;DHT22;6381;45.748;12.106;2023-06-10T12:45:30;27.00;91.20
12632;DHT22;6381;45.748;12.106;2023-06-10T12:48:07;26.80;88.70
12632;DHT22;6381;45.748;12.106;2023-06-10T12:50:38;27.10;89.50
12632;DHT22;6381;45.748;12.106;2023-06-10T12:53:07;27.30;90.10
12632;DHT22;6381;45.748;12.106;2023-06-10T12:55:38;28.60;86.50
12632;DHT22;6381;45.748;12.106;2023-06-10T12:58:07;28.70;84.50
12632;DHT22;6381;45.748;12.106;2023-06-10T13:00:36;29.30;85.10
12632;DHT22;6381;45.748;12.106;2023-06-10T13:03:05;29.00;84.50
12632;DHT22;6381;45.748;12.106;2023-06-10T13:05:35;28.00;84.20
12632;DHT22;6381;45.748;12.106;2023-06-10T13:08:07;27.60;86.40
12632;DHT22;6381;45.748;12.106;2023-06-10T13:10:39;27.90;84.50
12632;DHT22;6381;45.748;12.106;2023-06-10T13:13:08;29.00;82.50
12632;DHT22;6381;45.748;12.106;2023-06-10T13:15:37;28.70;81.20
12632;DHT22;6381;45.748;12.106;2023-06-10T13:18:10;28.80;80.70
12632;DHT22;6381;45.748;12.106;2023-06-10T13:20:39;29.10;80.50
12632;DHT22;6381;45.748;12.106;2023-06-10T13:23:08;28.90;80.50
12632;DHT22;6381;45.748;12.106;2023-06-10T13:25:38;29.00;81.50
12632;DHT22;6381;45.748;12.106;2023-06-10T13:28:08;29.10;77.30
12632;DHT22;6381;45.748;12.106;2023-06-10T13:30:36;29.40;78.80
12632;DHT22;6381;45.748;12.106;2023-06-10T13:33:05;29.30;76.90
12632;DHT22;6381;45.748;12.106;2023-06-10T13:35:34;28.90;76.70
12632;DHT22;6381;45.748;12.106;2023-06-10T13:38:03;29.70;75.50
12632;DHT22;6381;45.748;12.106;2023-06-10T13:40:32;29.20;76.20
12632;DHT22;6381;45.748;12.106;2023-06-10T13:43:02;29.70;76.50
12632;DHT22;6381;45.748;12.106;2023-06-10T13:45:31;29.10;74.80
12632;DHT22;6381;45.748;12.106;2023-06-10T13:47:59;29.70;74.50
12632;DHT22;6381;45.748;12.106;2023-06-10T13:50:29;29.00;74.90
12632;DHT22;6381;45.748;12.106;2023-06-10T13:52:57;30.00;77.10
12632;DHT22;6381;45.748;12.106;2023-06-10T13:55:30;30.20;73.70
12632;DHT22;6381;45.748;12.106;2023-06-10T13:57:59;30.70;72.80
12632;DHT22;6381;45.748;12.106;2023-06-10T14:00:29;31.20;72.70
12632;DHT22;6381;45.748;12.106;2023-06-10T14:02:58;31.10;69.80
12632;DHT22;6381;45.748;12.106;2023-06-10T14:05:27;31.50;71.20
12632;DHT22;6381;45.748;12.106;2023-06-10T14:07:58;30.20;68.60
12632;DHT22;6381;45.748;12.106;2023-06-10T14:10:27;30.40;70.30
12632;DHT22;6381;45.748;12.106;2023-06-10T14:12:56;31.30;71.30
12632;DHT22;6381;45.748;12.106;2023-06-10T14:15:24;31.10;67.30
12632;DHT22;6381;45.748;12.106;2023-06-10T14:17:55;30.30;67.30
12632;DHT22;6381;45.748;12.106;2023-06-10T14:20:23;30.20;68.20
12632;DHT22;6381;45.748;12.106;2023-06-10T14:22:54;30.10;68.50
12632;DHT22;6381;45.748;12.106;2023-06-10T14:25:22;31.10;65.20
12632;DHT22;6381;45.748;12.106;2023-06-10T14:27:51;31.20;65.70
12632;DHT22;6381;45.748;12.106;2023-06-10T14:30:20;31.50;65.00
12632;DHT22;6381;45.748;12.106;2023-06-10T14:32:49;31.40;67.00
12632;DHT22;6381;45.748;12.106;2023-06-10T14:35:19;32.10;65.30
12632;DHT22;6381;45.748;12.106;2023-06-10T14:37:48;32.00;63.30
12632;DHT22;6381;45.748;12.106;2023-06-10T14:40:17;30.90;63.80
12632;DHT22;6381;45.748;12.106;2023-06-10T14:42:48;30.70;66.30
12632;DHT22;6381;45.748;12.106;2023-06-10T14:45:17;31.00;66.30
12632;DHT22;6381;45.748;12.106;2023-06-10T14:47:46;31.80;64.50
12632;DHT22;6381;45.748;12.106;2023-06-10T14:50:15;32.20;63.10
12632;DHT22;6381;45.748;12.106;2023-06-10T14:52:45;31.70;61.80
12632;DHT22;6381;45.748;12.106;2023-06-10T14:55:14;30.60;63.60
12632;DHT22;6381;45.748;12.106;2023-06-10T14:57:44;29.80;66.90
12632;DHT22;6381;45.748;12.106;2023-06-10T15:00:13;29.80;69.10
12632;DHT22;6381;45.748;12.106;2023-06-10T15:02:45;30.70;66.90
12632;DHT22;6381;45.748;12.106;2023-06-10T15:05:15;31.20;66.30
12632;DHT22;6381;45.748;12.106;2023-06-10T15:07:46;30.20;67.80
12632;DHT22;6381;45.748;12.106;2023-06-10T15:10:15;30.60;67.40
12632;DHT22;6381;45.748;12.106;2023-06-10T15:12:48;30.40;66.30
12632;DHT22;6381;45.748;12.106;2023-06-10T15:15:23;29.80;69.40
12632;DHT22;6381;45.748;12.106;2023-06-10T15:17:53;29.00;69.90
12632;DHT22;6381;45.748;12.106;2023-06-10T15:20:23;28.70;71.80
12632;DHT22;6381;45.748;12.106;2023-06-10T15:22:55;30.30;69.20
12632;DHT22;6381;45.748;12.106;2023-06-10T15:25:24;29.90;67.80
12632;DHT22;6381;45.748;12.106;2023-06-10T15:27:58;31.20;68.00
12632;DHT22;6381;45.748;12.106;2023-06-10T15:30:27;30.30;67.20
12632;DHT22;6381;45.748;12.106;2023-06-10T15:32:55;29.80;68.30
12632;DHT22;6381;45.748;12.106;2023-06-10T15:35:25;29.50;68.80
12632;DHT22;6381;45.748;12.106;2023-06-10T15:37:55;29.40;70.70
12632;DHT22;6381;45.748;12.106;2023-06-10T15:40:24;30.10;68.40
12632;DHT22;6381;45.748;12.106;2023-06-10T15:42:53;28.30;68.60
12632;DHT22;6381;45.748;12.106;2023-06-10T15:45:22;28.40;71.60
12632;DHT22;6381;45.748;12.106;2023-06-10T15:47:50;27.90;73.50
12632;DHT22;6381;45.748;12.106;2023-06-10T15:50:20;28.40;72.20
12632;DHT22;6381;45.748;12.106;2023-06-10T15:52:49;28.70;72.00
12632;DHT22;6381;45.748;12.106;2023-06-10T15:55:19;28.00;72.40
12632;DHT22;6381;45.748;12.106;2023-06-10T15:57:48;27.90;75.30
12632;DHT22;6381;45.748;12.106;2023-06-10T16:00:17;28.00;76.00
12632;DHT22;6381;45.748;12.106;2023-06-10T16:02:46;28.00;76.30
12632;DHT22;6381;45.748;12.106;2023-06-10T16:05:15;28.00;76.40